sensor_id;sensor_type;location;lat;lon;timestamp;temperature;humidity
1179;DHT22;578;48.408;10.004;2024-01-06T00:00:46;5.30;99.90
1179;DHT22;578;48.408;10.004;2024-01-06T00:02:49;5.30;99.90
1179;DHT22;578;48.408;10.004;2024-01-06T00:04:51;5.30;99.90
1179;DHT22;578;48.408;10.004;2024-01-06T00:06:53;5.30;99.90
1179;DHT22;578;48.408;10.004;2024-01-06T00:08:56;5.30;99.90
1179;DHT22;578;48.408;10.004;2024-01-06T00:10:58;5.30;99.90
1179;DHT22;578;48.408;10.004;2024-01-06T00:13:03;5.30;99.90
1179;DHT22;578;48.408;10.004;2024-01-06T00:15:06;5.30;99.90
1179;DHT22;578;48.408;10.004;2024-01-06T00:17:08;5.30;99.90
1179;DHT22;578;48.408;10.004;2024-01-06T00:19:09;5.30;99.90
1179;DHT22;578;48.408;10.004;2024-01-06T00:21:10;5.30;99.90
1179;DHT22;578;48.408;10.004;2024-01-06T00:23:12;5.30;99.90
1179;DHT22;578;48.408;10.004;2024-01-06T00:25:15;5.30;99.90
1179;DHT22;578;48.408;10.004;2024-01-06T00:27:17;5.30;99.90
1179;DHT22;578;48.408;10.004;2024-01-06T00:29:19;5.30;99.90
1179;DHT22;578;48.408;10.004;2024-01-06T00:31:20;5.30;99.90
1179;DHT22;578;48.408;10.004;2024-01-06T00:33:21;5.30;99.90
1179;DHT22;578;48.408;10.004;2024-01-06T00:35:22;5.30;99.90
1179;DHT22;578;48.408;10.004;2024-01-06T00:37:24;5.20;99.90
1179;DHT22;578;48.408;10.004;2024-01-06T00:39:26;5.20;99.90
1179;DHT22;578;48.408;10.004;2024-01-06T00:41:29;5.20;99.90
1179;DHT22;578;48.408;10.004;2024-01-06T00:43:29;5.20;99.90
1179;DHT22;578;48.408;10.004;2024-01-06T00:45:31;5.20;99.90
1179;DHT22;578;48.408;10.004;2024-01-06T00:47:32;5.20;99.90
1179;DHT22;578;48.408;10.004;2024-01-06T00:49:34;5.20;99.90
1179;DHT22;578;48.408;10.004;2024-01-06T00:51:36;5.10;99.90
1179;DHT22;578;48.408;10.004;2024-01-06T00:53:37;5.10;99.90
1179;DHT22;578;48.408;10.004;2024-01-06T00:55:39;5.20;99.90
1179;DHT22;578;48.408;10.004;2024-01-06T00:57:42;5.10;99.90
1179;DHT22;578;48.408;10.004;2024-01-06T00:59:44;5.10;99.90
1179;DHT22;578;48.408;10.004;2024-01-06T01:01:46;5.10;99.90
1179;DHT22;578;48.408;10.004;2024-01-06T01:03:47;5.10;99.90
1179;DHT22;578;48.408;10.004;2024-01-06T01:05:48;5.10;99.90
1179;DHT22;578;48.408;10.004;2024-01-06T01:07:50;5.10;99.90
1179;DHT22;578;48.408;10.004;2024-01-06T01:09:52;5.10;99.90
1179;DHT22;578;48.408;10.004;2024-01-06T01:11:52;5.10;99.90
1179;DHT22;578;48.408;10.004;2024-01-06T01:13:56;5.00;99.90
1179;DHT22;578;48.408;10.004;2024-01-06T01:15:56;5.00;99.90
1179;DHT22;578;48.408;10.004;2024-01-06T01:17:58;5.00;99.90
1179;DHT22;578;48.408;10.004;2024-01-06T01:20:01;5.00;99.90
1179;DHT22;578;48.408;10.004;2024-01-06T01:22:03;5.00;99.90
1179;DHT22;578;48.408;10.004;2024-01-06T01:24:05;5.00;99.90
1179;DHT22;578;48.408;10.004;2024-01-06T01:26:06;5.00;99.90
1179;DHT22;578;48.408;10.004;2024-01-06T01:28:08;4.90;99.90
1179;DHT22;578;48.408;10.004;2024-01-06T01:30:12;4.90;99.90
1179;DHT22;578;48.408;10.004;2024-01-06T01:32:14;4.90;99.90
1179;DHT22;578;48.408;10.004;2024-01-06T01:34:15;4.90;99.90
1179;DHT22;578;48.408;10.004;2024-01-06T01:36:17;4.90;99.90
1179;DHT22;578;48.408;10.004;2024-01-06T01:38:19;4.90;99.90
1179;DHT22;578;48.408;10.004;2024-01-06T01:40:21;4.90;99.90
1179;DHT22;578;48.408;10.004;2024-01-06T01:42:22;4.90;99.90
1179;DHT22;578;48.408;10.004;2024-01-06T01:44:23;4.90;99.90
1179;DHT22;578;48.408;10.004;2024-01-06T01:46:27;4.90;99.90
1179;DHT22;578;48.408;10.004;2024-01-06T01:48:29;4.90;99.90
1179;DHT22;578;48.408;10.004;2024-01-06T01:50:34;4.90;99.90
1179;DHT22;578;48.408;10.004;2024-01-06T01:52:35;4.90;99.90
1179;DHT22;578;48.408;10.004;2024-01-06T01:54:38;4.90;99.90
1179;DHT22;578;48.408;10.004;2024-01-06T01:56:42;4.80;99.90
1179;DHT22;578;48.408;10.004;2024-01-06T01:58:44;4.80;99.90
1179;DHT22;578;48.408;10.004;2024-01-06T02:00:46;4.90;99.90
1179;DHT22;578;48.408;10.004;2024-01-06T02:02:48;4.80;99.90
1179;DHT22;578;48.408;10.004;2024-01-06T02:04:50;4.80;99.90
1179;DHT22;578;48.408;10.004;2024-01-06T02:06:52;4.90;99.90
1179;DHT22;578;48.408;10.004;2024-01-06T02:08:54;4.80;99.90
1179;DHT22;578;48.408;10.004;2024-01-06T02:10:55;4.90;99.90
1179;DHT22;578;48.408;10.004;2024-01-06T02:12:57;4.80;99.90
1179;DHT22;578;48.408;10.004;2024-01-06T02:15:08;4.80;99.90
1179;DHT22;578;48.408;10.004;2024-01-06T02:17:10;4.80;99.90
1179;DHT22;578;48.408;10.004;2024-01-06T02:19:13;4.80;99.90
1179;DHT22;578;48.408;10.004;2024-01-06T02:21:17;4.80;99.90
1179;DHT22;578;48.408;10.004;2024-01-06T02:23:23;4.80;99.90
1179;DHT22;578;48.408;10.004;2024-01-06T02:25:24;4.80;99.90
1179;DHT22;578;48.408;10.004;2024-01-06T02:27:26;4.80;99.90
1179;DHT22;578;48.408;10.004;2024-01-06T02:29:28;4.80;99.90
1179;DHT22;578;48.408;10.004;2024-01-06T02:31:30;4.80;99.90
1179;DHT22;578;48.408;10.004;2024-01-06T02:33:31;4.80;99.90
1179;DHT22;578;48.408;10.004;2024-01-06T02:35:33;4.70;99.90
1179;DHT22;578;48.408;10.004;2024-01-06T02:37:34;4.80;99.90
1179;DHT22;578;48.408;10.004;2024-01-06T02:39:37;4.80;99.90
1179;DHT22;578;48.408;10.004;2024-01-06T02:41:39;4.60;99.90
1179;DHT22;578;48.408;10.004;2024-01-06T02:43:41;4.70;99.90
1179;DHT22;578;48.408;10.004;2024-01-06T02:45:42;4.70;99.90
1179;DHT22;578;48.408;10.004;2024-01-06T02:47:44;4.70;99.90
1179;DHT22;578;48.408;10.004;2024-01-06T02:49:46;4.70;99.90
1179;DHT22;578;48.408;10.004;2024-01-06T02:51:46;4.60;99.90
1179;DHT22;578;48.408;10.004;2024-01-06T02:53:48;4.60;99.90
1179;DHT22;578;48.408;10.004;2024-01-06T02:55:51;4.70;99.90
1179;DHT22;578;48.408;10.004;2024-01-06T02:57:53;4.60;99.90
1179;DHT22;578;48.408;10.004;2024-01-06T02:59:55;4.60;99.90
1179;DHT22;578;48.408;10.004;2024-01-06T03:01:57;4.60;99.90
1179;DHT22;578;48.408;10.004;2024-01-06T03:03:58;4.50;99.90
1179;DHT22;578;48.408;10.004;2024-01-06T03:05:59;4.60;99.90
1179;DHT22;578;48.408;10.004;2024-01-06T03:08:01;4.50;99.90
1179;DHT22;578;48.408;10.004;2024-01-06T03:10:02;4.50;99.90
1179;DHT22;578;48.408;10.004;2024-01-06T03:12:06;4.50;99.90
1179;DHT22;578;48.408;10.004;2024-01-06T03:14:07;4.50;99.90
1179;DHT22;578;48.408;10.004;2024-01-06T03:16:11;4.50;99.90
1179;DHT22;578;48.408;10.004;2024-01-06T03:18:13;4.50;99.90
1179;DHT22;578;48.408;10.004;2024-01-06T03:20:15;4.50;99.90
1179;DHT22;578;48.408;10.004;2024-01-06T03:22:16;4.50;99.90
1179;DHT22;578;48.408;10.004;2024-01-06T03:24:18;4.50;99.90
1179;DHT22;578;48.408;10.004;2024-01-06T03:26:20;4.50;99.90
1179;DHT22;578;48.408;10.004;2024-01-06T03:28:22;4.50;99.90
1179;DHT22;578;48.408;10.004;2024-01-06T03:30:24;4.40;99.90
1179;DHT22;578;48.408;10.004;2024-01-06T03:32:25;4.50;99.90
1179;DHT22;578;48.408;10.004;2024-01-06T03:34:28;4.50;99.90
1179;DHT22;578;48.408;10.004;2024-01-06T03:36:30;4.50;99.90
1179;DHT22;578;48.408;10.004;2024-01-06T03:38:32;4.50;99.90
1179;DHT22;578;48.408;10.004;2024-01-06T03:40:34;4.40;99.90
1179;DHT22;578;48.408;10.004;2024-01-06T03:42:35;4.40;99.90
1179;DHT22;578;48.408;10.004;2024-01-06T03:44:39;4.40;99.90
1179;DHT22;578;48.408;10.004;2024-01-06T03:46:41;4.30;99.90
1179;DHT22;578;48.408;10.004;2024-01-06T03:48:42;4.30;99.90
1179;DHT22;578;48.408;10.004;2024-01-06T03:50:43;4.30;99.90
1179;DHT22;578;48.408;10.004;2024-01-06T03:52:45;4.30;99.90
1179;DHT22;578;48.408;10.004;2024-01-06T03:54:47;4.30;99.90
1179;DHT22;578;48.408;10.004;2024-01-06T03:56:48;4.30;99.90
1179;DHT22;578;48.408;10.004;2024-01-06T03:58:49;4.30;99.90
1179;DHT22;578;48.408;10.004;2024-01-06T04:00:52;4.30;99.90
1179;DHT22;578;48.408;10.004;2024-01-06T04:02:54;4.30;99.90
1179;DHT22;578;48.408;10.004;2024-01-06T04:04:56;4.30;99.90
1179;DHT22;578;48.408;10.004;2024-01-06T04:06:58;4.30;99.90
1179;DHT22;578;48.408;10.004;2024-01-06T04:09:01;4.20;99.90
1179;DHT22;578;48.408;10.004;2024-01-06T04:11:04;4.30;99.90
1179;DHT22;578;48.408;10.004;2024-01-06T04:13:05;4.30;99.90
1179;DHT22;578;48.408;10.004;2024-01-06T04:15:08;4.30;99.90
1179;DHT22;578;48.408;10.004;2024-01-06T04:17:11;4.30;99.90
1179;DHT22;578;48.408;10.004;2024-01-06T04:19:13;4.20;99.90
1179;DHT22;578;48.408;10.004;2024-01-06T04:21:15;4.20;99.90
1179;DHT22;578;48.408;10.004;2024-01-06T04:23:17;4.10;99.90
1179;DHT22;578;48.408;10.004;2024-01-06T04:25:19;4.20;99.90
1179;DHT22;578;48.408;10.004;2024-01-06T04:27:20;4.20;99.90
1179;DHT22;578;48.408;10.004;2024-01-06T04:29:21;4.30;99.90
1179;DHT22;578;48.408;10.004;2024-01-06T04:31:23;4.20;99.90
1179;DHT22;578;48.408;10.004;2024-01-06T04:33:26;4.20;99.90
1179;DHT22;578;48.408;10.004;2024-01-06T04:35:27;4.20;99.90
1179;DHT22;578;48.408;10.004;2024-01-06T04:37:29;4.20;99.90
1179;DHT22;578;48.408;10.004;2024-01-06T04:39:30;4.20;99.90
1179;DHT22;578;48.408;10.004;2024-01-06T04:41:31;4.10;99.90
1179;DHT22;578;48.408;10.004;2024-01-06T04:43:33;4.10;99.90
1179;DHT22;578;48.408;10.004;2024-01-06T04:45:35;4.10;99.90
1179;DHT22;578;48.408;10.004;2024-01-06T04:47:37;4.10;99.90
1179;DHT22;578;48.408;10.004;2024-01-06T04:49:40;4.10;99.90
1179;DHT22;578;48.408;10.004;2024-01-06T04:51:42;4.10;99.90
1179;DHT22;578;48.408;10.004;2024-01-06T04:53:43;4.10;99.90
1179;DHT22;578;48.408;10.004;2024-01-06T04:55:45;4.10;99.90
1179;DHT22;578;48.408;10.004;2024-01-06T04:57:48;4.10;99.90
1179;DHT22;578;48.408;10.004;2024-01-06T04:59:49;4.00;99.90
1179;DHT22;578;48.408;10.004;2024-01-06T05:01:51;4.10;99.90
1179;DHT22;578;48.408;10.004;2024-01-06T05:03:54;4.10;99.90
1179;DHT22;578;48.408;10.004;2024-01-06T05:05:56;4.00;99.90
1179;DHT22;578;48.408;10.004;2024-01-06T05:07:58;4.10;99.90
1179;DHT22;578;48.408;10.004;2024-01-06T05:10:00;4.10;99.90
1179;DHT22;578;48.408;10.004;2024-01-06T05:12:03;4.10;99.90
1179;DHT22;578;48.408;10.004;2024-01-06T05:14:04;4.10;99.90
1179;DHT22;578;48.408;10.004;2024-01-06T05:16:08;4.00;99.90
1179;DHT22;578;48.408;10.004;2024-01-06T05:18:09;4.00;99.90
1179;DHT22;578;48.408;10.004;2024-01-06T05:20:11;4.00;99.90
1179;DHT22;578;48.408;10.004;2024-01-06T05:22:14;4.00;99.90
1179;DHT22;578;48.408;10.004;2024-01-06T05:24:16;4.00;99.90
1179;DHT22;578;48.408;10.004;2024-01-06T05:26:17;4.00;99.90
1179;DHT22;578;48.408;10.004;2024-01-06T05:28:19;4.00;99.90
1179;DHT22;578;48.408;10.004;2024-01-06T05:30:21;4.00;99.90
1179;DHT22;578;48.408;10.004;2024-01-06T05:32:23;4.00;99.90
1179;DHT22;578;48.408;10.004;2024-01-06T05:34:24;4.00;99.90
1179;DHT22;578;48.408;10.004;2024-01-06T05:36:26;4.10;99.90
1179;DHT22;578;48.408;10.004;2024-01-06T05:38:28;4.00;99.90
1179;DHT22;578;48.408;10.004;2024-01-06T05:40:30;4.00;99.90
1179;DHT22;578;48.408;10.004;2024-01-06T05:42:32;4.00;99.90
1179;DHT22;578;48.408;10.004;2024-01-06T05:44:35;4.10;99.90
1179;DHT22;578;48.408;10.004;2024-01-06T05:46:37;4.00;99.90
1179;DHT22;578;48.408;10.004;2024-01-06T05:48:39;4.00;99.90
1179;DHT22;578;48.408;10.004;2024-01-06T05:50:42;4.00;99.90
1179;DHT22;578;48.408;10.004;2024-01-06T05:52:43;4.00;99.90
1179;DHT22;578;48.408;10.004;2024-01-06T05:54:49;4.10;99.90
1179;DHT22;578;48.408;10.004;2024-01-06T05:56:50;4.10;99.90
1179;DHT22;578;48.408;10.004;2024-01-06T05:58:53;4.10;99.90
1179;DHT22;578;48.408;10.004;2024-01-06T06:00:54;4.10;99.90
1179;DHT22;578;48.408;10.004;2024-01-06T06:02:56;4.10;99.90
1179;DHT22;578;48.408;10.004;2024-01-06T06:04:58;4.10;99.90
1179;DHT22;578;48.408;10.004;2024-01-06T06:07:00;4.10;99.90
1179;DHT22;578;48.408;10.004;2024-01-06T06:09:02;4.10;99.90
1179;DHT22;578;48.408;10.004;2024-01-06T06:11:08;4.10;99.90
1179;DHT22;578;48.408;10.004;2024-01-06T06:13:12;4.00;99.90
1179;DHT22;578;48.408;10.004;2024-01-06T06:15:14;4.10;99.90
1179;DHT22;578;48.408;10.004;2024-01-06T06:17:15;4.00;99.90
1179;DHT22;578;48.408;10.004;2024-01-06T06:19:16;4.00;99.90
1179;DHT22;578;48.408;10.004;2024-01-06T06:21:19;4.10;99.90
1179;DHT22;578;48.408;10.004;2024-01-06T06:23:21;4.10;99.90
1179;DHT22;578;48.408;10.004;2024-01-06T06:25:22;4.10;99.90
1179;DHT22;578;48.408;10.004;2024-01-06T06:27:25;4.10;99.90
1179;DHT22;578;48.408;10.004;2024-01-06T06:29:27;4.10;99.90
1179;DHT22;578;48.408;10.004;2024-01-06T06:31:30;4.10;99.90
1179;DHT22;578;48.408;10.004;2024-01-06T06:33:31;4.20;99.90
1179;DHT22;578;48.408;10.004;2024-01-06T06:35:34;4.20;99.90
1179;DHT22;578;48.408;10.004;2024-01-06T06:37:35;4.20;99.90
1179;DHT22;578;48.408;10.004;2024-01-06T06:39:37;4.20;99.90
1179;DHT22;578;48.408;10.004;2024-01-06T06:41:39;4.20;99.90
1179;DHT22;578;48.408;10.004;2024-01-06T06:43:42;4.20;99.90
1179;DHT22;578;48.408;10.004;2024-01-06T06:45:44;4.20;99.90
1179;DHT22;578;48.408;10.004;2024-01-06T06:47:46;4.20;99.90
1179;DHT22;578;48.408;10.004;2024-01-06T06:49:46;4.20;99.90
1179;DHT22;578;48.408;10.004;2024-01-06T06:51:48;4.10;99.90
1179;DHT22;578;48.408;10.004;2024-01-06T06:53:50;4.10;99.90
1179;DHT22;578;48.408;10.004;2024-01-06T06:55:51;4.10;99.90
1179;DHT22;578;48.408;10.004;2024-01-06T06:57:53;4.10;99.90
1179;DHT22;578;48.408;10.004;2024-01-06T06:59:56;4.10;99.90
1179;DHT22;578;48.408;10.004;2024-01-06T07:01:57;4.20;99.90
1179;DHT22;578;48.408;10.004;2024-01-06T07:03:59;4.10;99.90
1179;DHT22;578;48.408;10.004;2024-01-06T07:06:00;4.20;99.90
1179;DHT22;578;48.408;10.004;2024-01-06T07:08:03;4.10;99.90
1179;DHT22;578;48.408;10.004;2024-01-06T07:10:06;4.10;99.90
1179;DHT22;578;48.408;10.004;2024-01-06T07:12:08;4.10;99.90
1179;DHT22;578;48.408;10.004;2024-01-06T07:14:09;4.00;99.90
1179;DHT22;578;48.408;10.004;2024-01-06T07:16:12;4.10;99.90
1179;DHT22;578;48.408;10.004;2024-01-06T07:18:14;4.10;99.90
1179;DHT22;578;48.408;10.004;2024-01-06T07:20:16;4.10;99.90
1179;DHT22;578;48.408;10.004;2024-01-06T07:22:17;4.10;99.90
1179;DHT22;578;48.408;10.004;2024-01-06T07:24:19;4.10;99.90
1179;DHT22;578;48.408;10.004;2024-01-06T07:26:21;4.10;99.90
1179;DHT22;578;48.408;10.004;2024-01-06T07:28:23;4.00;99.90
1179;DHT22;578;48.408;10.004;2024-01-06T07:30:25;3.90;99.90
1179;DHT22;578;48.408;10.004;2024-01-06T07:32:28;3.90;99.90
1179;DHT22;578;48.408;10.004;2024-01-06T07:34:29;4.00;99.90
1179;DHT22;578;48.408;10.004;2024-01-06T07:36:31;3.90;99.90
1179;DHT22;578;48.408;10.004;2024-01-06T07:38:33;4.00;99.90
1179;DHT22;578;48.408;10.004;2024-01-06T07:40:35;4.10;99.90
1179;DHT22;578;48.408;10.004;2024-01-06T07:42:36;4.10;99.90
1179;DHT22;578;48.408;10.004;2024-01-06T07:44:38;4.10;99.90
1179;DHT22;578;48.408;10.004;2024-01-06T07:46:40;4.10;99.90
1179;DHT22;578;48.408;10.004;2024-01-06T07:48:43;4.10;99.90
1179;DHT22;578;48.408;10.004;2024-01-06T07:50:45;4.20;99.90
1179;DHT22;578;48.408;10.004;2024-01-06T07:52:47;4.10;99.90
1179;DHT22;578;48.408;10.004;2024-01-06T07:54:48;4.10;99.90
1179;DHT22;578;48.408;10.004;2024-01-06T07:56:50;4.20;99.90
1179;DHT22;578;48.408;10.004;2024-01-06T07:58:52;4.20;99.90
1179;DHT22;578;48.408;10.004;2024-01-06T08:00:54;4.20;99.90
1179;DHT22;578;48.408;10.004;2024-01-06T08:02:55;4.30;99.90
1179;DHT22;578;48.408;10.004;2024-01-06T08:04:58;4.30;99.90
1179;DHT22;578;48.408;10.004;2024-01-06T08:07:00;4.30;99.90
1179;DHT22;578;48.408;10.004;2024-01-06T08:09:02;4.30;99.90
1179;DHT22;578;48.408;10.004;2024-01-06T08:11:04;4.40;99.90
1179;DHT22;578;48.408;10.004;2024-01-06T08:13:06;4.40;99.90
1179;DHT22;578;48.408;10.004;2024-01-06T08:15:08;4.50;99.90
1179;DHT22;578;48.408;10.004;2024-01-06T08:17:10;4.50;99.90
1179;DHT22;578;48.408;10.004;2024-01-06T08:19:12;4.50;99.90
1179;DHT22;578;48.408;10.004;2024-01-06T08:21:15;4.50;99.90
1179;DHT22;578;48.408;10.004;2024-01-06T08:23:17;4.50;99.90
1179;DHT22;578;48.408;10.004;2024-01-06T08:25:20;4.50;99.90
1179;DHT22;578;48.408;10.004;2024-01-06T08:27:22;4.50;99.90
1179;DHT22;578;48.408;10.004;2024-01-06T08:29:25;4.50;99.90
1179;DHT22;578;48.408;10.004;2024-01-06T08:31:27;4.50;99.90
1179;DHT22;578;48.408;10.004;2024-01-06T08:33:28;4.60;99.90
1179;DHT22;578;48.408;10.004;2024-01-06T08:35:30;4.60;99.90
1179;DHT22;578;48.408;10.004;2024-01-06T08:37:33;4.60;99.90
1179;DHT22;578;48.408;10.004;2024-01-06T08:39:35;4.60;99.90
1179;DHT22;578;48.408;10.004;2024-01-06T08:41:37;4.60;99.90
1179;DHT22;578;48.408;10.004;2024-01-06T08:43:39;4.60;99.90
1179;DHT22;578;48.408;10.004;2024-01-06T08:45:41;4.60;99.90
1179;DHT22;578;48.408;10.004;2024-01-06T08:47:42;4.60;99.90
1179;DHT22;578;48.408;10.004;2024-01-06T08:49:44;4.60;99.90
1179;DHT22;578;48.408;10.004;2024-01-06T08:51:46;4.60;99.90
1179;DHT22;578;48.408;10.004;2024-01-06T08:53:49;4.60;99.90
1179;DHT22;578;48.408;10.004;2024-01-06T08:55:51;4.60;99.90
1179;DHT22;578;48.408;10.004;2024-01-06T08:57:52;4.60;99.90
1179;DHT22;578;48.408;10.004;2024-01-06T08:59:54;4.60;99.90
1179;DHT22;578;48.408;10.004;2024-01-06T09:01:56;4.60;99.90
1179;DHT22;578;48.408;10.004;2024-01-06T09:03:57;4.50;99.90
1179;DHT22;578;48.408;10.004;2024-01-06T09:05:59;4.60;99.90
1179;DHT22;578;48.408;10.004;2024-01-06T09:08:01;4.60;99.90
1179;DHT22;578;48.408;10.004;2024-01-06T09:10:05;4.60;99.90
1179;DHT22;578;48.408;10.004;2024-01-06T09:12:08;4.60;99.90
1179;DHT22;578;48.408;10.004;2024-01-06T09:14:10;4.60;99.90
1179;DHT22;578;48.408;10.004;2024-01-06T09:16:12;4.60;99.90
1179;DHT22;578;48.408;10.004;2024-01-06T09:18:12;4.50;99.90
1179;DHT22;578;48.408;10.004;2024-01-06T09:20:14;4.50;99.90
1179;DHT22;578;48.408;10.004;2024-01-06T09:22:17;4.50;99.90
1179;DHT22;578;48.408;10.004;2024-01-06T09:24:19;4.60;99.90
1179;DHT22;578;48.408;10.004;2024-01-06T09:26:22;4.60;99.90
1179;DHT22;578;48.408;10.004;2024-01-06T09:28:24;4.60;99.90
1179;DHT22;578;48.408;10.004;2024-01-06T09:30:26;4.60;99.90
1179;DHT22;578;48.408;10.004;2024-01-06T09:32:28;4.60;99.90
1179;DHT22;578;48.408;10.004;2024-01-06T09:34:29;4.60;99.90
1179;DHT22;578;48.408;10.004;2024-01-06T09:36:31;4.60;99.90
1179;DHT22;578;48.408;10.004;2024-01-06T09:38:33;4.60;99.90
1179;DHT22;578;48.408;10.004;2024-01-06T09:40:41;4.60;99.90
1179;DHT22;578;48.408;10.004;2024-01-06T09:42:44;4.60;99.90
1179;DHT22;578;48.408;10.004;2024-01-06T09:44:46;4.60;99.90
1179;DHT22;578;48.408;10.004;2024-01-06T09:46:47;4.60;99.90
1179;DHT22;578;48.408;10.004;2024-01-06T09:48:52;4.60;99.90
1179;DHT22;578;48.408;10.004;2024-01-06T09:50:56;4.70;99.90
1179;DHT22;578;48.408;10.004;2024-01-06T09:52:58;4.60;99.90
1179;DHT22;578;48.408;10.004;2024-01-06T09:55:10;4.70;99.90
1179;DHT22;578;48.408;10.004;2024-01-06T09:57:12;4.70;99.90
1179;DHT22;578;48.408;10.004;2024-01-06T09:59:16;4.70;99.90
1179;DHT22;578;48.408;10.004;2024-01-06T10:01:19;4.70;99.90
1179;DHT22;578;48.408;10.004;2024-01-06T10:03:21;4.70;99.90
1179;DHT22;578;48.408;10.004;2024-01-06T10:05:22;4.70;99.90
1179;DHT22;578;48.408;10.004;2024-01-06T10:07:25;4.80;99.90
1179;DHT22;578;48.408;10.004;2024-01-06T10:09:27;4.80;99.90
1179;DHT22;578;48.408;10.004;2024-01-06T10:11:29;4.80;99.90
1179;DHT22;578;48.408;10.004;2024-01-06T10:13:31;4.90;99.90
1179;DHT22;578;48.408;10.004;2024-01-06T10:15:35;4.80;99.90
1179;DHT22;578;48.408;10.004;2024-01-06T10:17:38;4.90;99.90
1179;DHT22;578;48.408;10.004;2024-01-06T10:19:40;4.90;99.90
1179;DHT22;578;48.408;10.004;2024-01-06T10:21:42;5.00;99.90
1179;DHT22;578;48.408;10.004;2024-01-06T10:23:44;4.90;99.90
1179;DHT22;578;48.408;10.004;2024-01-06T10:25:46;4.90;99.90
1179;DHT22;578;48.408;10.004;2024-01-06T10:27:47;4.90;99.90
1179;DHT22;578;48.408;10.004;2024-01-06T10:29:49;4.80;99.90
1179;DHT22;578;48.408;10.004;2024-01-06T10:31:53;4.80;99.90
1179;DHT22;578;48.408;10.004;2024-01-06T10:33:55;4.80;99.90
1179;DHT22;578;48.408;10.004;2024-01-06T10:35:58;4.70;99.90
1179;DHT22;578;48.408;10.004;2024-01-06T10:38:01;4.80;99.90
1179;DHT22;578;48.408;10.004;2024-01-06T10:40:08;4.80;99.90
1179;DHT22;578;48.408;10.004;2024-01-06T10:42:10;4.80;99.90
1179;DHT22;578;48.408;10.004;2024-01-06T10:44:14;4.80;99.90
1179;DHT22;578;48.408;10.004;2024-01-06T10:46:18;4.70;99.90
1179;DHT22;578;48.408;10.004;2024-01-06T10:48:22;4.80;99.90
1179;DHT22;578;48.408;10.004;2024-01-06T10:50:26;4.80;99.90
1179;DHT22;578;48.408;10.004;2024-01-06T10:52:28;4.80;99.90
1179;DHT22;578;48.408;10.004;2024-01-06T10:54:30;4.80;99.90
1179;DHT22;578;48.408;10.004;2024-01-06T10:56:36;4.90;99.90
1179;DHT22;578;48.408;10.004;2024-01-06T10:58:43;5.00;99.90
1179;DHT22;578;48.408;10.004;2024-01-06T11:00:47;5.10;99.90
1179;DHT22;578;48.408;10.004;2024-01-06T11:02:49;5.10;99.90
1179;DHT22;578;48.408;10.004;2024-01-06T11:04:54;5.10;99.90
1179;DHT22;578;48.408;10.004;2024-01-06T11:06:56;5.20;99.90
1179;DHT22;578;48.408;10.004;2024-01-06T11:09:02;5.20;99.90
1179;DHT22;578;48.408;10.004;2024-01-06T11:11:06;5.20;99.90
1179;DHT22;578;48.408;10.004;2024-01-06T11:13:11;5.20;99.90
1179;DHT22;578;48.408;10.004;2024-01-06T11:15:41;5.10;99.90
1179;DHT22;578;48.408;10.004;2024-01-06T11:17:50;5.20;99.90
1179;DHT22;578;48.408;10.004;2024-01-06T11:20:04;5.20;99.90
1179;DHT22;578;48.408;10.004;2024-01-06T11:22:23;5.20;99.90
1179;DHT22;578;48.408;10.004;2024-01-06T11:24:24;5.20;99.90
1179;DHT22;578;48.408;10.004;2024-01-06T11:26:27;5.20;99.90
1179;DHT22;578;48.408;10.004;2024-01-06T11:28:28;5.10;99.90
1179;DHT22;578;48.408;10.004;2024-01-06T11:30:29;5.10;99.90
1179;DHT22;578;48.408;10.004;2024-01-06T11:32:34;5.10;99.90
1179;DHT22;578;48.408;10.004;2024-01-06T11:34:40;5.00;99.90
1179;DHT22;578;48.408;10.004;2024-01-06T11:36:45;5.10;99.90
1179;DHT22;578;48.408;10.004;2024-01-06T11:38:46;5.10;99.90
1179;DHT22;578;48.408;10.004;2024-01-06T11:40:51;5.20;99.90
1179;DHT22;578;48.408;10.004;2024-01-06T11:43:04;5.20;99.90
1179;DHT22;578;48.408;10.004;2024-01-06T11:45:06;5.20;99.90
1179;DHT22;578;48.408;10.004;2024-01-06T11:47:08;5.20;99.90
1179;DHT22;578;48.408;10.004;2024-01-06T11:49:12;5.20;99.90
1179;DHT22;578;48.408;10.004;2024-01-06T11:51:15;5.20;99.90
1179;DHT22;578;48.408;10.004;2024-01-06T11:53:21;5.20;99.90
1179;DHT22;578;48.408;10.004;2024-01-06T11:55:23;5.20;99.90
1179;DHT22;578;48.408;10.004;2024-01-06T11:57:25;5.10;99.90
1179;DHT22;578;48.408;10.004;2024-01-06T11:59:27;5.10;99.90
1179;DHT22;578;48.408;10.004;2024-01-06T12:01:36;5.20;99.90
1179;DHT22;578;48.408;10.004;2024-01-06T12:03:38;5.20;99.90
1179;DHT22;578;48.408;10.004;2024-01-06T12:05:39;5.30;99.90
1179;DHT22;578;48.408;10.004;2024-01-06T12:07:41;5.20;99.90
1179;DHT22;578;48.408;10.004;2024-01-06T12:09:45;5.30;99.90
1179;DHT22;578;48.408;10.004;2024-01-06T12:11:47;5.30;99.90
1179;DHT22;578;48.408;10.004;2024-01-06T12:13:48;5.30;99.90
1179;DHT22;578;48.408;10.004;2024-01-06T12:15:49;5.30;99.90
1179;DHT22;578;48.408;10.004;2024-01-06T12:17:51;5.30;99.90
1179;DHT22;578;48.408;10.004;2024-01-06T12:19:53;5.30;99.90
1179;DHT22;578;48.408;10.004;2024-01-06T12:21:55;5.30;99.90
1179;DHT22;578;48.408;10.004;2024-01-06T12:24:13;5.30;99.90
1179;DHT22;578;48.408;10.004;2024-01-06T12:26:18;5.30;99.90
1179;DHT22;578;48.408;10.004;2024-01-06T12:28:21;5.40;99.90
1179;DHT22;578;48.408;10.004;2024-01-06T12:30:23;5.40;99.90
1179;DHT22;578;48.408;10.004;2024-01-06T12:32:26;5.40;99.90
1179;DHT22;578;48.408;10.004;2024-01-06T12:34:27;5.50;99.90
1179;DHT22;578;48.408;10.004;2024-01-06T12:36:29;5.50;99.90
1179;DHT22;578;48.408;10.004;2024-01-06T12:38:31;5.40;99.90
1179;DHT22;578;48.408;10.004;2024-01-06T12:40:33;5.30;99.90
1179;DHT22;578;48.408;10.004;2024-01-06T12:42:38;5.40;99.90
1179;DHT22;578;48.408;10.004;2024-01-06T12:44:40;5.40;99.90
1179;DHT22;578;48.408;10.004;2024-01-06T12:46:43;5.50;99.90
1179;DHT22;578;48.408;10.004;2024-01-06T12:48:44;5.40;99.90
1179;DHT22;578;48.408;10.004;2024-01-06T12:50:46;5.40;99.90
1179;DHT22;578;48.408;10.004;2024-01-06T12:52:48;5.40;99.90
1179;DHT22;578;48.408;10.004;2024-01-06T12:54:50;5.30;99.90
1179;DHT22;578;48.408;10.004;2024-01-06T12:56:53;5.40;99.90
1179;DHT22;578;48.408;10.004;2024-01-06T12:58:56;5.40;99.90
1179;DHT22;578;48.408;10.004;2024-01-06T13:00:57;5.50;99.90
1179;DHT22;578;48.408;10.004;2024-01-06T13:02:58;5.30;99.90
1179;DHT22;578;48.408;10.004;2024-01-06T13:05:00;5.40;99.90
1179;DHT22;578;48.408;10.004;2024-01-06T13:07:02;5.50;99.90
1179;DHT22;578;48.408;10.004;2024-01-06T13:09:03;5.50;99.90
1179;DHT22;578;48.408;10.004;2024-01-06T13:11:06;5.50;99.90
1179;DHT22;578;48.408;10.004;2024-01-06T13:13:07;5.50;99.90
1179;DHT22;578;48.408;10.004;2024-01-06T13:15:11;5.60;99.90
1179;DHT22;578;48.408;10.004;2024-01-06T13:17:12;5.60;99.90
1179;DHT22;578;48.408;10.004;2024-01-06T13:19:15;5.60;99.90
1179;DHT22;578;48.408;10.004;2024-01-06T13:21:16;5.50;99.90
1179;DHT22;578;48.408;10.004;2024-01-06T13:23:18;5.50;99.90
1179;DHT22;578;48.408;10.004;2024-01-06T13:25:20;5.40;99.90
1179;DHT22;578;48.408;10.004;2024-01-06T13:27:22;5.40;99.90
1179;DHT22;578;48.408;10.004;2024-01-06T13:29:24;5.30;99.90
1179;DHT22;578;48.408;10.004;2024-01-06T13:31:26;5.20;99.90